sensor_id;sensor_type;location;lat;lon;timestamp;temperature;humidity
23323;DHT22;11833;52.554;13.554;2023-03-12T01:00:34;1.60;99.90
23323;DHT22;11833;52.554;13.554;2023-03-12T01:03:00;1.60;99.90
23323;DHT22;11833;52.554;13.554;2023-03-12T01:05:26;1.80;99.90
23323;DHT22;11833;52.554;13.554;2023-03-12T01:07:51;1.70;99.90
23323;DHT22;11833;52.554;13.554;2023-03-12T01:10:19;1.70;99.90
23323;DHT22;11833;52.554;13.554;2023-03-12T01:12:45;1.70;99.90
23323;DHT22;11833;52.554;13.554;2023-03-12T01:15:14;1.80;99.90
23323;DHT22;11833;52.554;13.554;2023-03-12T01:17:41;1.80;99.90
23323;DHT22;11833;52.554;13.554;2023-03-12T01:20:08;1.80;99.90
23323;DHT22;11833;52.554;13.554;2023-03-12T01:22:35;1.70;99.90
23323;DHT22;11833;52.554;13.554;2023-03-12T01:25:01;1.60;99.90
23323;DHT22;11833;52.554;13.554;2023-03-12T01:27:27;1.70;99.90
23323;DHT22;11833;52.554;13.554;2023-03-12T01:29:53;1.70;99.90
23323;DHT22;11833;52.554;13.554;2023-03-12T01:32:20;1.70;99.90
23323;DHT22;11833;52.554;13.554;2023-03-12T01:34:45;1.60;99.90
23323;DHT22;11833;52.554;13.554;2023-03-12T01:37:11;1.60;99.90
23323;DHT22;11833;52.554;13.554;2023-03-12T01:39:37;1.70;99.90
23323;DHT22;11833;52.554;13.554;2023-03-12T01:42:03;1.70;99.90
23323;DHT22;11833;52.554;13.554;2023-03-12T01:44:29;1.80;99.90
23323;DHT22;11833;52.554;13.554;2023-03-12T01:46:54;1.60;99.90
23323;DHT22;11833;52.554;13.554;2023-03-12T01:49:30;1.60;99.90
23323;DHT22;11833;52.554;13.554;2023-03-12T01:52:06;1.60;99.90
23323;DHT22;11833;52.554;13.554;2023-03-12T01:54:38;1.60;99.90
23323;DHT22;11833;52.554;13.554;2023-03-12T01:57:18;1.70;99.90
23323;DHT22;11833;52.554;13.554;2023-03-12T01:59:53;1.80;99.90
23323;DHT22;11833;52.554;13.554;2023-03-12T02:02:22;1.70;99.90
23323;DHT22;11833;52.554;13.554;2023-03-12T02:05:28;1.80;99.90
23323;DHT22;11833;52.554;13.554;2023-03-12T02:07:57;1.70;99.90
23323;DHT22;11833;52.554;13.554;2023-03-12T02:10:24;1.70;99.90
23323;DHT22;11833;52.554;13.554;2023-03-12T02:12:51;1.70;99.90
23323;DHT22;11833;52.554;13.554;2023-03-12T02:15:17;1.60;99.90
23323;DHT22;11833;52.554;13.554;2023-03-12T02:17:43;1.60;99.90
23323;DHT22;11833;52.554;13.554;2023-03-12T02:20:27;1.60;99.90
23323;DHT22;11833;52.554;13.554;2023-03-12T02:25:50;1.60;99.90
23323;DHT22;11833;52.554;13.554;2023-03-12T02:28:19;1.60;99.90
23323;DHT22;11833;52.554;13.554;2023-03-12T02:30:49;1.50;99.90
23323;DHT22;11833;52.554;13.554;2023-03-12T02:33:16;1.50;99.90
23323;DHT22;11833;52.554;13.554;2023-03-12T02:35:42;1.50;99.90
23323;DHT22;11833;52.554;13.554;2023-03-12T02:38:37;1.50;99.90
23323;DHT22;11833;52.554;13.554;2023-03-12T02:43:48;1.40;99.90
23323;DHT22;11833;52.554;13.554;2023-03-12T02:46:17;1.30;99.90
23323;DHT22;11833;52.554;13.554;2023-03-12T02:48:42;1.30;99.90
23323;DHT22;11833;52.554;13.554;2023-03-12T02:51:08;1.30;99.90
23323;DHT22;11833;52.554;13.554;2023-03-12T02:53:34;1.30;99.90
23323;DHT22;11833;52.554;13.554;2023-03-12T02:56:00;1.30;99.90
23323;DHT22;11833;52.554;13.554;2023-03-12T02:58:26;1.20;99.90
23323;DHT22;11833;52.554;13.554;2023-03-12T03:00:52;1.20;99.90
23323;DHT22;11833;52.554;13.554;2023-03-12T03:03:17;1.00;99.90
23323;DHT22;11833;52.554;13.554;2023-03-12T03:05:43;1.10;99.90
23323;DHT22;11833;52.554;13.554;2023-03-12T03:08:09;1.10;99.90
23323;DHT22;11833;52.554;13.554;2023-03-12T03:10:35;1.00;99.90
23323;DHT22;11833;52.554;13.554;2023-03-12T03:13:00;1.00;99.90
23323;DHT22;11833;52.554;13.554;2023-03-12T03:15:26;0.90;99.90
23323;DHT22;11833;52.554;13.554;2023-03-12T03:17:52;0.90;99.90
23323;DHT22;11833;52.554;13.554;2023-03-12T03:20:18;0.90;99.90
23323;DHT22;11833;52.554;13.554;2023-03-12T03:22:44;0.80;99.90
23323;DHT22;11833;52.554;13.554;2023-03-12T03:25:10;0.80;99.90
23323;DHT22;11833;52.554;13.554;2023-03-12T03:27:36;0.80;99.90
23323;DHT22;11833;52.554;13.554;2023-03-12T03:30:02;0.80;99.90
23323;DHT22;11833;52.554;13.554;2023-03-12T03:32:29;0.70;99.90
23323;DHT22;11833;52.554;13.554;2023-03-12T03:34:54;0.70;99.90
23323;DHT22;11833;52.554;13.554;2023-03-12T03:37:20;0.80;99.90
23323;DHT22;11833;52.554;13.554;2023-03-12T03:39:46;0.70;99.90
23323;DHT22;11833;52.554;13.554;2023-03-12T03:42:11;0.70;99.90
23323;DHT22;11833;52.554;13.554;2023-03-12T03:44:37;0.60;99.90
23323;DHT22;11833;52.554;13.554;2023-03-12T03:47:03;0.50;99.90
23323;DHT22;11833;52.554;13.554;2023-03-12T03:49:29;0.50;99.90
23323;DHT22;11833;52.554;13.554;2023-03-12T03:51:54;0.50;99.90
23323;DHT22;11833;52.554;13.554;2023-03-12T03:54:20;0.40;99.90
23323;DHT22;11833;52.554;13.554;2023-03-12T03:56:46;0.50;99.90
23323;DHT22;11833;52.554;13.554;2023-03-12T03:59:12;0.40;99.90
23323;DHT22;11833;52.554;13.554;2023-03-12T04:01:38;0.60;99.90
23323;DHT22;11833;52.554;13.554;2023-03-12T04:04:04;0.60;99.90
23323;DHT22;11833;52.554;13.554;2023-03-12T04:06:30;0.50;99.90
23323;DHT22;11833;52.554;13.554;2023-03-12T04:08:56;0.50;99.90
23323;DHT22;11833;52.554;13.554;2023-03-12T04:11:23;0.40;99.90
23323;DHT22;11833;52.554;13.554;2023-03-12T04:13:49;0.30;99.90
23323;DHT22;11833;52.554;13.554;2023-03-12T04:16:16;0.30;99.90
23323;DHT22;11833;52.554;13.554;2023-03-12T04:18:42;0.40;99.90
23323;DHT22;11833;52.554;13.554;2023-03-12T04:21:11;0.40;99.90
23323;DHT22;11833;52.554;13.554;2023-03-12T04:23:38;0.30;99.90
23323;DHT22;11833;52.554;13.554;2023-03-12T04:26:05;0.20;99.90
23323;DHT22;11833;52.554;13.554;2023-03-12T04:28:31;0.30;99.90
23323;DHT22;11833;52.554;13.554;2023-03-12T04:31:00;0.30;99.90
23323;DHT22;11833;52.554;13.554;2023-03-12T04:33:29;0.30;99.90
23323;DHT22;11833;52.554;13.554;2023-03-12T04:35:57;0.40;99.90
23323;DHT22;11833;52.554;13.554;2023-03-12T04:38:25;0.30;99.90
23323;DHT22;11833;52.554;13.554;2023-03-12T04:41:05;0.30;99.90
23323;DHT22;11833;52.554;13.554;2023-03-12T04:43:33;0.20;99.90
23323;DHT22;11833;52.554;13.554;2023-03-12T04:46:00;0.30;99.90
23323;DHT22;11833;52.554;13.554;2023-03-12T04:48:26;0.30;99.90
23323;DHT22;11833;52.554;13.554;2023-03-12T04:50:52;0.10;99.90
23323;DHT22;11833;52.554;13.554;2023-03-12T04:53:18;0.10;99.90
23323;DHT22;11833;52.554;13.554;2023-03-12T04:55:44;0.10;99.90
23323;DHT22;11833;52.554;13.554;2023-03-12T04:58:10;0.20;99.90
23323;DHT22;11833;52.554;13.554;2023-03-12T05:00:38;0.20;99.90
23323;DHT22;11833;52.554;13.554;2023-03-12T05:03:04;0.10;99.90
23323;DHT22;11833;52.554;13.554;2023-03-12T05:05:30;0.20;99.90
23323;DHT22;11833;52.554;13.554;2023-03-12T05:07:56;0.00;99.90
23323;DHT22;11833;52.554;13.554;2023-03-12T05:10:22;0.00;99.90
23323;DHT22;11833;52.554;13.554;2023-03-12T05:12:47;0.20;99.90
23323;DHT22;11833;52.554;13.554;2023-03-12T05:15:13;0.10;99.90
23323;DHT22;11833;52.554;13.554;2023-03-12T05:17:39;0.10;99.90
23323;DHT22;11833;52.554;13.554;2023-03-12T05:20:05;0.00;99.90
23323;DHT22;11833;52.554;13.554;2023-03-12T05:22:31;-0.10;99.90
23323;DHT22;11833;52.554;13.554;2023-03-12T05:24:56;0.00;99.90
23323;DHT22;11833;52.554;13.554;2023-03-12T05:27:22;0.10;99.90
23323;DHT22;11833;52.554;13.554;2023-03-12T05:29:51;0.00;99.90
23323;DHT22;11833;52.554;13.554;2023-03-12T05:32:17;0.10;99.90
23323;DHT22;11833;52.554;13.554;2023-03-12T05:34:42;0.00;99.90
23323;DHT22;11833;52.554;13.554;2023-03-12T05:37:08;0.00;99.90
23323;DHT22;11833;52.554;13.554;2023-03-12T05:39:34;0.00;99.90
23323;DHT22;11833;52.554;13.554;2023-03-12T05:42:00;0.00;99.90
23323;DHT22;11833;52.554;13.554;2023-03-12T05:44:25;-0.10;99.90
23323;DHT22;11833;52.554;13.554;2023-03-12T05:46:52;0.10;99.90
23323;DHT22;11833;52.554;13.554;2023-03-12T05:49:19;0.10;99.90
23323;DHT22;11833;52.554;13.554;2023-03-12T05:51:47;0.00;99.90
23323;DHT22;11833;52.554;13.554;2023-03-12T05:54:15;0.10;99.90
23323;DHT22;11833;52.554;13.554;2023-03-12T05:56:41;0.00;99.90
23323;DHT22;11833;52.554;13.554;2023-03-12T05:59:07;0.00;99.90
23323;DHT22;11833;52.554;13.554;2023-03-12T06:01:35;0.00;99.90
23323;DHT22;11833;52.554;13.554;2023-03-12T06:04:01;0.00;99.90
23323;DHT22;11833;52.554;13.554;2023-03-12T06:06:29;0.10;99.90
23323;DHT22;11833;52.554;13.554;2023-03-12T06:08:56;0.10;99.90
23323;DHT22;11833;52.554;13.554;2023-03-12T06:11:22;0.00;99.90
23323;DHT22;11833;52.554;13.554;2023-03-12T06:13:48;0.10;99.90
23323;DHT22;11833;52.554;13.554;2023-03-12T06:16:19;0.00;99.90
23323;DHT22;11833;52.554;13.554;2023-03-12T06:18:46;0.20;99.90
23323;DHT22;11833;52.554;13.554;2023-03-12T06:21:18;0.20;99.90
23323;DHT22;11833;52.554;13.554;2023-03-12T06:23:47;0.20;99.90
23323;DHT22;11833;52.554;13.554;2023-03-12T06:26:13;0.30;99.90
23323;DHT22;11833;52.554;13.554;2023-03-12T06:28:39;0.30;99.90
23323;DHT22;11833;52.554;13.554;2023-03-12T06:31:06;0.20;99.90
23323;DHT22;11833;52.554;13.554;2023-03-12T06:33:32;0.20;99.90
23323;DHT22;11833;52.554;13.554;2023-03-12T06:36:00;0.30;99.90
23323;DHT22;11833;52.554;13.554;2023-03-12T06:38:27;0.60;99.90
23323;DHT22;11833;52.554;13.554;2023-03-12T06:40:58;0.50;99.90
23323;DHT22;11833;52.554;13.554;2023-03-12T06:43:28;0.40;99.90
23323;DHT22;11833;52.554;13.554;2023-03-12T06:45:57;0.60;99.90
23323;DHT22;11833;52.554;13.554;2023-03-12T06:48:24;0.70;99.90
23323;DHT22;11833;52.554;13.554;2023-03-12T06:50:50;0.70;99.90
23323;DHT22;11833;52.554;13.554;2023-03-12T06:53:17;0.50;99.90
23323;DHT22;11833;52.554;13.554;2023-03-12T06:55:44;0.50;99.90
23323;DHT22;11833;52.554;13.554;2023-03-12T06:58:10;0.50;99.90
23323;DHT22;11833;52.554;13.554;2023-03-12T07:00:37;0.60;99.90
23323;DHT22;11833;52.554;13.554;2023-03-12T07:03:03;0.70;99.90
23323;DHT22;11833;52.554;13.554;2023-03-12T07:05:29;0.70;99.90
23323;DHT22;11833;52.554;13.554;2023-03-12T07:07:55;0.90;99.90
23323;DHT22;11833;52.554;13.554;2023-03-12T07:10:21;0.90;99.90
23323;DHT22;11833;52.554;13.554;2023-03-12T07:12:47;1.30;99.90
23323;DHT22;11833;52.554;13.554;2023-03-12T07:15:13;1.10;99.90
23323;DHT22;11833;52.554;13.554;2023-03-12T07:17:39;1.00;99.90
23323;DHT22;11833;52.554;13.554;2023-03-12T07:20:06;1.00;99.90
23323;DHT22;11833;52.554;13.554;2023-03-12T07:22:32;1.20;99.90
23323;DHT22;11833;52.554;13.554;2023-03-12T07:24:58;1.20;99.90
23323;DHT22;11833;52.554;13.554;2023-03-12T07:27:24;1.60;99.90
23323;DHT22;11833;52.554;13.554;2023-03-12T07:29:49;1.40;99.90
23323;DHT22;11833;52.554;13.554;2023-03-12T07:32:15;1.40;99.90
23323;DHT22;11833;52.554;13.554;2023-03-12T07:34:41;1.50;99.90
23323;DHT22;11833;52.554;13.554;2023-03-12T07:37:07;1.50;99.90
23323;DHT22;11833;52.554;13.554;2023-03-12T07:39:32;1.50;99.90
23323;DHT22;11833;52.554;13.554;2023-03-12T07:41:58;1.70;99.90
23323;DHT22;11833;52.554;13.554;2023-03-12T07:44:24;2.20;99.90
23323;DHT22;11833;52.554;13.554;2023-03-12T07:46:51;2.00;99.90
23323;DHT22;11833;52.554;13.554;2023-03-12T07:49:17;1.90;99.90
23323;DHT22;11833;52.554;13.554;2023-03-12T07:51:43;1.70;99.90
23323;DHT22;11833;52.554;13.554;2023-03-12T07:54:09;1.80;99.90
23323;DHT22;11833;52.554;13.554;2023-03-12T07:56:34;1.70;99.90
23323;DHT22;11833;52.554;13.554;2023-03-12T07:59:00;1.70;99.90
23323;DHT22;11833;52.554;13.554;2023-03-12T08:01:26;1.80;99.90
23323;DHT22;11833;52.554;13.554;2023-03-12T08:03:57;2.00;99.90
23323;DHT22;11833;52.554;13.554;2023-03-12T08:06:24;2.20;99.90
23323;DHT22;11833;52.554;13.554;2023-03-12T08:08:50;2.20;99.90
23323;DHT22;11833;52.554;13.554;2023-03-12T08:11:16;2.20;99.90
23323;DHT22;11833;52.554;13.554;2023-03-12T08:13:42;2.40;99.90
23323;DHT22;11833;52.554;13.554;2023-03-12T08:16:08;2.30;99.90
23323;DHT22;11833;52.554;13.554;2023-03-12T08:18:33;2.50;99.90
23323;DHT22;11833;52.554;13.554;2023-03-12T08:20:59;2.80;99.90
23323;DHT22;11833;52.554;13.554;2023-03-12T08:23:26;2.60;99.90
23323;DHT22;11833;52.554;13.554;2023-03-12T08:25:52;2.70;99.90
23323;DHT22;11833;52.554;13.554;2023-03-12T08:28:20;3.40;99.90
23323;DHT22;11833;52.554;13.554;2023-03-12T08:30:48;3.60;99.90
23323;DHT22;11833;52.554;13.554;2023-03-12T08:33:16;3.40;99.90
23323;DHT22;11833;52.554;13.554;2023-03-12T08:35:43;3.60;99.90
23323;DHT22;11833;52.554;13.554;2023-03-12T08:38:09;3.90;99.90
23323;DHT22;11833;52.554;13.554;2023-03-12T08:40:35;3.50;99.90
23323;DHT22;11833;52.554;13.554;2023-03-12T08:43:01;3.30;99.90
23323;DHT22;11833;52.554;13.554;2023-03-12T08:45:26;3.20;99.90
23323;DHT22;11833;52.554;13.554;2023-03-12T08:47:52;3.70;99.90
23323;DHT22;11833;52.554;13.554;2023-03-12T08:50:18;4.00;99.90
23323;DHT22;11833;52.554;13.554;2023-03-12T08:52:46;4.00;99.90
23323;DHT22;11833;52.554;13.554;2023-03-12T08:55:12;3.90;99.90
23323;DHT22;11833;52.554;13.554;2023-03-12T08:57:39;4.20;99.90
23323;DHT22;11833;52.554;13.554;2023-03-12T09:00:06;3.90;99.90
23323;DHT22;11833;52.554;13.554;2023-03-12T09:02:36;4.20;99.90
23323;DHT22;11833;52.554;13.554;2023-03-12T09:05:03;4.50;99.90
23323;DHT22;11833;52.554;13.554;2023-03-12T09:07:32;4.60;99.90
23323;DHT22;11833;52.554;13.554;2023-03-12T09:09:58;5.00;99.90
23323;DHT22;11833;52.554;13.554;2023-03-12T09:12:24;5.00;99.90
23323;DHT22;11833;52.554;13.554;2023-03-12T09:14:50;4.40;98.90
23323;DHT22;11833;52.554;13.554;2023-03-12T09:17:17;4.70;99.90
23323;DHT22;11833;52.554;13.554;2023-03-12T09:19:43;5.90;99.90
23323;DHT22;11833;52.554;13.554;2023-03-12T09:22:09;5.60;99.90
23323;DHT22;11833;52.554;13.554;2023-03-12T09:24:35;5.70;99.90
23323;DHT22;11833;52.554;13.554;2023-03-12T09:27:01;6.30;99.90
23323;DHT22;11833;52.554;13.554;2023-03-12T09:29:29;6.60;99.90
23323;DHT22;11833;52.554;13.554;2023-03-12T09:31:55;6.20;97.20
23323;DHT22;11833;52.554;13.554;2023-03-12T09:34:21;5.80;96.20
23323;DHT22;11833;52.554;13.554;2023-03-12T09:36:47;5.10;93.10
23323;DHT22;11833;52.554;13.554;2023-03-12T09:39:13;4.90;95.00
23323;DHT22;11833;52.554;13.554;2023-03-12T09:41:39;5.10;94.70
23323;DHT22;11833;52.554;13.554;2023-03-12T09:44:19;5.10;93.40
23323;DHT22;11833;52.554;13.554;2023-03-12T09:47:07;5.80;99.90
23323;DHT22;11833;52.554;13.554;2023-03-12T09:49:45;6.20;99.90
23323;DHT22;11833;52.554;13.554;2023-03-12T09:52:28;6.30;92.40
23323;DHT22;11833;52.554;13.554;2023-03-12T09:55:19;6.50;99.20
23323;DHT22;11833;52.554;13.554;2023-03-12T09:57:47;7.00;93.20
23323;DHT22;11833;52.554;13.554;2023-03-12T10:00:29;6.40;96.90
23323;DHT22;11833;52.554;13.554;2023-03-12T10:03:19;7.00;90.60
23323;DHT22;11833;52.554;13.554;2023-03-12T10:18:07;6.30;90.10
23323;DHT22;11833;52.554;13.554;2023-03-12T10:29:32;7.10;87.50
23323;DHT22;11833;52.554;13.554;2023-03-12T10:34:39;7.00;90.90
23323;DHT22;11833;52.554;13.554;2023-03-12T10:37:19;6.80;90.40
23323;DHT22;11833;52.554;13.554;2023-03-12T10:39:49;6.90;86.90
23323;DHT22;11833;52.554;13.554;2023-03-12T10:42:21;6.60;85.30
23323;DHT22;11833;52.554;13.554;2023-03-12T10:45:20;6.60;87.60
23323;DHT22;11833;52.554;13.554;2023-03-12T10:47:54;7.50;91.00
23323;DHT22;11833;52.554;13.554;2023-03-12T10:50:27;7.60;82.10
23323;DHT22;11833;52.554;13.554;2023-03-12T10:53:26;7.40;83.10
23323;DHT22;11833;52.554;13.554;2023-03-12T10:56:15;9.60;99.90
23323;DHT22;11833;52.554;13.554;2023-03-12T10:58:48;9.70;78.20
23323;DHT22;11833;52.554;13.554;2023-03-12T11:03:52;10.90;94.90
23323;DHT22;11833;52.554;13.554;2023-03-12T11:06:28;10.20;68.90
23323;DHT22;11833;52.554;13.554;2023-03-12T11:09:17;10.20;84.50
23323;DHT22;11833;52.554;13.554;2023-03-12T11:11:45;9.60;67.70
23323;DHT22;11833;52.554;13.554;2023-03-12T11:14:24;8.90;82.10
23323;DHT22;11833;52.554;13.554;2023-03-12T11:16:52;8.60;79.60
23323;DHT22;11833;52.554;13.554;2023-03-12T11:19:30;9.20;78.00
23323;DHT22;11833;52.554;13.554;2023-03-12T11:22:05;10.00;78.10
23323;DHT22;11833;52.554;13.554;2023-03-12T11:24:33;10.50;78.90
23323;DHT22;11833;52.554;13.554;2023-03-12T11:29:30;9.70;71.70
23323;DHT22;11833;52.554;13.554;2023-03-12T11:32:30;10.90;73.50
23323;DHT22;11833;52.554;13.554;2023-03-12T11:34:57;11.40;64.80
23323;DHT22;11833;52.554;13.554;2023-03-12T11:51:55;10.80;66.50
23323;DHT22;11833;52.554;13.554;2023-03-12T11:55:01;10.20;60.50
23323;DHT22;11833;52.554;13.554;2023-03-12T12:12:44;8.90;64.10
23323;DHT22;11833;52.554;13.554;2023-03-12T12:15:49;9.90;64.40
23323;DHT22;11833;52.554;13.554;2023-03-12T12:27:35;9.40;65.00
23323;DHT22;11833;52.554;13.554;2023-03-12T12:36:08;9.40;62.20
23323;DHT22;11833;52.554;13.554;2023-03-12T12:39:12;9.40;63.70
23323;DHT22;11833;52.554;13.554;2023-03-12T12:41:42;9.50;62.70
23323;DHT22;11833;52.554;13.554;2023-03-12T12:44:31;9.90;61.10
23323;DHT22;11833;52.554;13.554;2023-03-12T12:47:02;9.20;59.50
23323;DHT22;11833;52.554;13.554;2023-03-12T12:52:28;9.00;59.20
23323;DHT22;11833;52.554;13.554;2023-03-12T12:55:10;8.60;61.50
23323;DHT22;11833;52.554;13.554;2023-03-12T13:00:39;8.10;57.40
23323;DHT22;11833;52.554;13.554;2023-03-12T13:03:13;8.30;58.20
23323;DHT22;11833;52.554;13.554;2023-03-12T13:13:53;8.80;54.20
23323;DHT22;11833;52.554;13.554;2023-03-12T13:16:38;9.00;55.10
23323;DHT22;11833;52.554;13.554;2023-03-12T13:25:09;8.90;51.60
23323;DHT22;11833;52.554;13.554;2023-03-12T13:27:45;8.40;50.90
23323;DHT22;11833;52.554;13.554;2023-03-12T13:45:33;8.00;55.20
23323;DHT22;11833;52.554;13.554;2023-03-12T13:48:13;7.40;55.00
23323;DHT22;11833;52.554;13.554;2023-03-12T13:50:52;7.80;55.60
23323;DHT22;11833;52.554;13.554;2023-03-12T13:53:37;7.80;55.10
23323;DHT22;11833;52.554;13.554;2023-03-12T13:56:09;8.10;53.80
23323;DHT22;11833;52.554;13.554;2023-03-12T14:01:16;8.10;54.20
23323;DHT22;11833;52.554;13.554;2023-03-12T14:03:55;8.10;53.90
23323;DHT22;11833;52.554;13.554;2023-03-12T14:06:28;7.80;54.40
23323;DHT22;11833;52.554;13.554;2023-03-12T14:17:27;7.90;69.20
23323;DHT22;11833;52.554;13.554;2023-03-12T14:20:18;7.70;63.10
23323;DHT22;11833;52.554;13.554;2023-03-12T14:23:06;7.50;63.10
23323;DHT22;11833;52.554;13.554;2023-03-12T14:25:43;7.50;64.50
23323;DHT22;11833;52.554;13.554;2023-03-12T14:28:18;7.70;62.70
23323;DHT22;11833;52.554;13.554;2023-03-12T14:33:47;7.70;61.00
23323;DHT22;11833;52.554;13.554;2023-03-12T14:36:19;7.40;59.80
23323;DHT22;11833;52.554;13.554;2023-03-12T14:38:47;7.20;60.50
23323;DHT22;11833;52.554;13.554;2023-03-12T14:41:29;7.30;60.80
23323;DHT22;11833;52.554;13.554;2023-03-12T14:44:19;7.20;58.70
23323;DHT22;11833;52.554;13.554;2023-03-12T14:46:58;7.20;60.00
23323;DHT22;11833;52.554;13.554;2023-03-12T14:49:25;6.90;58.00
23323;DHT22;11833;52.554;13.554;2023-03-12T14:51:52;6.50;59.40
23323;DHT22;11833;52.554;13.554;2023-03-12T14:54:19;6.40;59.50
23323;DHT22;11833;52.554;13.554;2023-03-12T14:56:49;6.60;59.40
23323;DHT22;11833;52.554;13.554;2023-03-12T14:59:29;6.70;60.00
23323;DHT22;11833;52.554;13.554;2023-03-12T15:02:11;7.00;60.50
23323;DHT22;11833;52.554;13.554;2023-03-12T15:04:39;7.10;60.00
23323;DHT22;11833;52.554;13.554;2023-03-12T15:07:08;6.60;61.40
23323;DHT22;11833;52.554;13.554;2023-03-12T15:09:37;6.60;62.20
23323;DHT22;11833;52.554;13.554;2023-03-12T15:12:16;6.80;61.80
23323;DHT22;11833;52.554;13.554;2023-03-12T15:14:42;6.80;62.00
23323;DHT22;11833;52.554;13.554;2023-03-12T15:17:15;6.70;62.60
23323;DHT22;11833;52.554;13.554;2023-03-12T15:19:42;6.80;62.40
23323;DHT22;11833;52.554;13.554;2023-03-12T15:22:17;6.80;61.30
23323;DHT22;11833;52.554;13.554;2023-03-12T15:24:45;6.60;62.00
23323;DHT22;11833;52.554;13.554;2023-03-12T15:29:50;6.30;63.70
23323;DHT22;11833;52.554;13.554;2023-03-12T15:32:17;6.50;63.10
23323;DHT22;11833;52.554;13.554;2023-03-12T15:34:50;6.20;64.20
23323;DHT22;11833;52.554;13.554;2023-03-12T15:40:18;6.30;64.30
23323;DHT22;11833;52.554;13.554;2023-03-12T15:42:46;6.50;63.70
23323;DHT22;11833;52.554;13.554;2023-03-12T15:45:22;6.60;63.60
23323;DHT22;11833;52.554;13.554;2023-03-12T15:47:50;6.20;63.20
23323;DHT22;11833;52.554;13.554;2023-03-12T15:50:19;6.40;65.00
23323;DHT22;11833;52.554;13.554;2023-03-12T15:55:59;6.40;65.30
23323;DHT22;11833;52.554;13.554;2023-03-12T15:58:32;6.50;65.90
23323;DHT22;11833;52.554;13.554;2023-03-12T16:01:16;6.20;66.90
23323;DHT22;11833;52.554;13.554;2023-03-12T16:03:45;6.20;67.40
23323;DHT22;11833;52.554;13.554;2023-03-12T16:06:22;6.10;68.40
23323;DHT22;11833;52.554;13.554;2023-03-12T16:08:54;5.80;69.90
23323;DHT22;11833;52.554;13.554;2023-03-12T16:11:31;5.80;70.10
23323;DHT22;11833;52.554;13.554;2023-03-12T16:14:09;5.90;70.80
23323;DHT22;11833;52.554;13.554;2023-03-12T16:16:45;5.80;71.20
23323;DHT22;11833;52.554;13.554;2023-03-12T16:19:16;6.00;70.70
23323;DHT22;11833;52.554;13.554;2023-03-12T16:21:43;5.90;71.80
23323;DHT22;11833;52.554;13.554;2023-03-12T16:24:10;5.70;74.40
23323;DHT22;11833;52.554;13.554;2023-03-12T16:26:47;5.80;73.20
23323;DHT22;11833;52.554;13.554;2023-03-12T16:29:31;5.90;73.40
23323;DHT22;11833;52.554;13.554;2023-03-12T16:31:58;5.80;75.70
23323;DHT22;11833;52.554;13.554;2023-03-12T16:34:24;5.50;76.80
23323;DHT22;11833;52.554;13.554;2023-03-12T16:36:50;5.20;79.00
23323;DHT22;11833;52.554;13.554;2023-03-12T16:39:16;5.20;81.00
23323;DHT22;11833;52.554;13.554;2023-03-12T16:41:42;5.50;79.50
23323;DHT22;11833;52.554;13.554;2023-03-12T16:44:14;5.80;77.60
23323;DHT22;11833;52.554;13.554;2023-03-12T16:46:43;5.60;79.00
23323;DHT22;11833;52.554;13.554;2023-03-12T16:49:13;5.40;80.50
23323;DHT22;11833;52.554;13.554;2023-03-12T16:51:40;5.50;80.30
23323;DHT22;11833;52.554;13.554;2023-03-12T16:54:06;5.50;79.90
23323;DHT22;11833;52.554;13.554;2023-03-12T16:56:34;5.30;81.80
23323;DHT22;11833;52.554;13.554;2023-03-12T16:59:06;5.40;82.40
23323;DHT22;11833;52.554;13.554;2023-03-12T17:01:35;5.50;81.80
23323;DHT22;11833;52.554;13.554;2023-03-12T17:04:01;5.40;84.00
23323;DHT22;11833;52.554;13.554;2023-03-12T17:06:29;5.10;88.80
23323;DHT22;11833;52.554;13.554;2023-03-12T17:08:55;4.70;94.10
23323;DHT22;11833;52.554;13.554;2023-03-12T17:11:24;5.00;92.10
23323;DHT22;11833;52.554;13.554;2023-03-12T17:13:54;4.60;96.60
23323;DHT22;11833;52.554;13.554;2023-03-12T17:16:23;4.50;96.30
23323;DHT22;11833;52.554;13.554;2023-03-12T17:18:49;4.40;98.30
23323;DHT22;11833;52.554;13.554;2023-03-12T17:21:16;4.60;98.30
23323;DHT22;11833;52.554;13.554;2023-03-12T17:23:42;4.80;96.90
23323;DHT22;11833;52.554;13.554;2023-03-12T17:26:10;4.90;96.00
23323;DHT22;11833;52.554;13.554;2023-03-12T17:28:36;5.00;97.30
23323;DHT22;11833;52.554;13.554;2023-03-12T17:31:02;5.00;96.10
23323;DHT22;11833;52.554;13.554;2023-03-12T17:33:28;4.90;96.40
23323;DHT22;11833;52.554;13.554;2023-03-12T17:36:03;5.10;95.60
23323;DHT22;11833;52.554;13.554;2023-03-12T17:38:31;4.80;98.40
23323;DHT22;11833;52.554;13.554;2023-03-12T17:40:58;4.80;98.70
23323;DHT22;11833;52.554;13.554;2023-03-12T17:43:25;4.70;99.90
23323;DHT22;11833;52.554;13.554;2023-03-12T17:45:51;4.80;99.00
23323;DHT22;11833;52.554;13.554;2023-03-12T17:48:18;5.00;98.20
23323;DHT22;11833;52.554;13.554;2023-03-12T17:50:44;5.10;97.00
23323;DHT22;11833;52.554;13.554;2023-03-12T17:53:10;5.10;97.60
23323;DHT22;11833;52.554;13.554;2023-03-12T17:55:37;4.90;98.60
23323;DHT22;11833;52.554;13.554;2023-03-12T17:58:03;5.00;99.10
23323;DHT22;11833;52.554;13.554;2023-03-12T18:00:30;5.20;99.90
23323;DHT22;11833;52.554;13.554;2023-03-12T18:02:56;5.00;99.90
23323;DHT22;11833;52.554;13.554;2023-03-12T18:05:24;4.80;99.90
23323;DHT22;11833;52.554;13.554;2023-03-12T18:07:49;4.60;99.90
23323;DHT22;11833;52.554;13.554;2023-03-12T18:10:16;4.70;99.90
23323;DHT22;11833;52.554;13.554;2023-03-12T18:12:42;4.80;99.90
23323;DHT22;11833;52.554;13.554;2023-03-12T18:15:10;4.60;99.90
23323;DHT22;11833;52.554;13.554;2023-03-12T18:17:38;4.40;99.90
23323;DHT22;11833;52.554;13.554;2023-03-12T18:20:05;4.30;99.90
23323;DHT22;11833;52.554;13.554;2023-03-12T18:22:37;4.50;99.90
23323;DHT22;11833;52.554;13.554;2023-03-12T18:25:04;4.50;99.90
23323;DHT22;11833;52.554;13.554;2023-03-12T18:27:30;4.30;99.90
23323;DHT22;11833;52.554;13.554;2023-03-12T18:29:56;4.50;99.90
23323;DHT22;11833;52.554;13.554;2023-03-12T18:32:22;4.50;99.90
23323;DHT22;11833;52.554;13.554;2023-03-12T18:34:47;4.50;99.90
23323;DHT22;11833;52.554;13.554;2023-03-12T18:37:13;4.40;99.90
23323;DHT22;11833;52.554;13.554;2023-03-12T18:39:39;4.20;99.90
23323;DHT22;11833;52.554;13.554;2023-03-12T18:42:05;4.30;99.90
23323;DHT22;11833;52.554;13.554;2023-03-12T18:44:31;4.30;99.90
23323;DHT22;11833;52.554;13.554;2023-03-12T18:46:56;4.40;99.90
23323;DHT22;11833;52.554;13.554;2023-03-12T18:49:22;4.50;99.90
23323;DHT22;11833;52.554;13.554;2023-03-12T18:51:48;4.50;99.90
23323;DHT22;11833;52.554;13.554;2023-03-12T18:54:18;4.60;99.90
23323;DHT22;11833;52.554;13.554;2023-03-12T18:56:43;4.60;99.90
23323;DHT22;11833;52.554;13.554;2023-03-12T18:59:09;4.50;99.90
23323;DHT22;11833;52.554;13.554;2023-03-12T19:01:37;4.70;99.90